sensor_id;sensor_type;location;lat;lon;timestamp;temperature;humidity
16635;DHT22;8431;52.458;9.998;2022-08-21T00:01:12;14.10;99.90
16635;DHT22;8431;52.458;9.998;2022-08-21T00:03:40;14.10;99.90
16635;DHT22;8431;52.458;9.998;2022-08-21T00:06:07;14.10;99.90
16635;DHT22;8431;52.458;9.998;2022-08-21T00:08:35;14.10;99.90
16635;DHT22;8431;52.458;9.998;2022-08-21T00:11:03;14.00;99.90
16635;DHT22;8431;52.458;9.998;2022-08-21T00:13:32;14.00;99.90
16635;DHT22;8431;52.458;9.998;2022-08-21T00:16:00;13.90;99.90
16635;DHT22;8431;52.458;9.998;2022-08-21T00:18:27;13.80;99.90
16635;DHT22;8431;52.458;9.998;2022-08-21T00:20:55;13.90;99.90
16635;DHT22;8431;52.458;9.998;2022-08-21T00:23:22;13.80;99.90
16635;DHT22;8431;52.458;9.998;2022-08-21T00:25:49;13.80;99.90
16635;DHT22;8431;52.458;9.998;2022-08-21T00:28:16;13.70;99.90
16635;DHT22;8431;52.458;9.998;2022-08-21T00:30:45;13.80;99.90
16635;DHT22;8431;52.458;9.998;2022-08-21T00:33:12;13.70;99.90
16635;DHT22;8431;52.458;9.998;2022-08-21T00:35:41;13.60;99.90
16635;DHT22;8431;52.458;9.998;2022-08-21T00:38:09;13.60;99.90
16635;DHT22;8431;52.458;9.998;2022-08-21T00:40:41;13.60;99.90
16635;DHT22;8431;52.458;9.998;2022-08-21T00:43:11;13.70;99.90
16635;DHT22;8431;52.458;9.998;2022-08-21T00:45:39;13.60;99.90
16635;DHT22;8431;52.458;9.998;2022-08-21T00:48:07;13.50;99.90
16635;DHT22;8431;52.458;9.998;2022-08-21T00:50:39;13.40;99.90
16635;DHT22;8431;52.458;9.998;2022-08-21T00:53:07;13.40;99.90
16635;DHT22;8431;52.458;9.998;2022-08-21T00:55:37;13.30;99.90
16635;DHT22;8431;52.458;9.998;2022-08-21T00:58:06;13.30;99.90
16635;DHT22;8431;52.458;9.998;2022-08-21T01:00:37;13.30;99.90
16635;DHT22;8431;52.458;9.998;2022-08-21T01:03:10;13.20;99.90
16635;DHT22;8431;52.458;9.998;2022-08-21T01:05:38;13.20;99.90
16635;DHT22;8431;52.458;9.998;2022-08-21T01:08:06;13.20;99.90
16635;DHT22;8431;52.458;9.998;2022-08-21T01:10:34;13.20;99.90
16635;DHT22;8431;52.458;9.998;2022-08-21T01:13:03;13.20;99.90
16635;DHT22;8431;52.458;9.998;2022-08-21T01:15:36;13.20;99.90
16635;DHT22;8431;52.458;9.998;2022-08-21T01:18:05;13.10;99.90
16635;DHT22;8431;52.458;9.998;2022-08-21T01:20:36;13.10;99.90
16635;DHT22;8431;52.458;9.998;2022-08-21T01:23:05;13.10;99.90
16635;DHT22;8431;52.458;9.998;2022-08-21T01:25:33;13.00;99.90
16635;DHT22;8431;52.458;9.998;2022-08-21T01:28:06;13.00;99.90
16635;DHT22;8431;52.458;9.998;2022-08-21T01:30:37;13.10;99.90
16635;DHT22;8431;52.458;9.998;2022-08-21T01:33:05;13.10;99.90
16635;DHT22;8431;52.458;9.998;2022-08-21T01:35:32;13.10;99.90
16635;DHT22;8431;52.458;9.998;2022-08-21T01:37:59;13.00;99.90
16635;DHT22;8431;52.458;9.998;2022-08-21T01:40:27;13.00;99.90
16635;DHT22;8431;52.458;9.998;2022-08-21T01:42:55;12.90;99.90
16635;DHT22;8431;52.458;9.998;2022-08-21T01:45:22;12.90;99.90
16635;DHT22;8431;52.458;9.998;2022-08-21T01:47:49;12.90;99.90
16635;DHT22;8431;52.458;9.998;2022-08-21T01:50:18;12.90;99.90
16635;DHT22;8431;52.458;9.998;2022-08-21T01:52:46;12.90;99.90
16635;DHT22;8431;52.458;9.998;2022-08-21T01:55:14;12.90;99.90
16635;DHT22;8431;52.458;9.998;2022-08-21T01:57:43;12.90;99.90
16635;DHT22;8431;52.458;9.998;2022-08-21T02:00:12;12.80;99.90
16635;DHT22;8431;52.458;9.998;2022-08-21T02:02:41;12.80;99.90
16635;DHT22;8431;52.458;9.998;2022-08-21T02:05:10;12.70;99.90
16635;DHT22;8431;52.458;9.998;2022-08-21T02:07:37;12.60;99.90
16635;DHT22;8431;52.458;9.998;2022-08-21T02:10:07;12.60;99.90
16635;DHT22;8431;52.458;9.998;2022-08-21T02:12:34;12.60;99.90
16635;DHT22;8431;52.458;9.998;2022-08-21T02:15:04;12.60;99.90
16635;DHT22;8431;52.458;9.998;2022-08-21T02:17:39;12.60;99.90
16635;DHT22;8431;52.458;9.998;2022-08-21T02:20:07;12.50;99.90
16635;DHT22;8431;52.458;9.998;2022-08-21T02:22:35;12.60;99.90
16635;DHT22;8431;52.458;9.998;2022-08-21T02:25:02;12.50;99.90
16635;DHT22;8431;52.458;9.998;2022-08-21T02:27:29;12.40;99.90
16635;DHT22;8431;52.458;9.998;2022-08-21T02:29:57;12.50;99.90
16635;DHT22;8431;52.458;9.998;2022-08-21T02:32:26;12.40;99.90
16635;DHT22;8431;52.458;9.998;2022-08-21T02:34:53;12.40;99.90
16635;DHT22;8431;52.458;9.998;2022-08-21T02:37:20;12.50;99.90
16635;DHT22;8431;52.458;9.998;2022-08-21T02:39:47;12.40;99.90
16635;DHT22;8431;52.458;9.998;2022-08-21T02:42:14;12.30;99.90
16635;DHT22;8431;52.458;9.998;2022-08-21T02:44:41;12.30;99.90
16635;DHT22;8431;52.458;9.998;2022-08-21T02:47:08;12.30;99.90
16635;DHT22;8431;52.458;9.998;2022-08-21T02:49:37;12.20;99.90
16635;DHT22;8431;52.458;9.998;2022-08-21T02:52:04;12.30;99.90
16635;DHT22;8431;52.458;9.998;2022-08-21T02:54:31;12.30;99.90
16635;DHT22;8431;52.458;9.998;2022-08-21T02:56:58;12.30;99.90
16635;DHT22;8431;52.458;9.998;2022-08-21T02:59:25;12.30;99.90
16635;DHT22;8431;52.458;9.998;2022-08-21T03:01:52;12.30;99.90
16635;DHT22;8431;52.458;9.998;2022-08-21T03:04:19;12.20;99.90
16635;DHT22;8431;52.458;9.998;2022-08-21T03:06:49;12.10;99.90
16635;DHT22;8431;52.458;9.998;2022-08-21T03:09:16;12.00;99.90
16635;DHT22;8431;52.458;9.998;2022-08-21T03:11:43;12.00;99.90
16635;DHT22;8431;52.458;9.998;2022-08-21T03:14:11;12.10;99.90
16635;DHT22;8431;52.458;9.998;2022-08-21T03:16:38;12.10;99.90
16635;DHT22;8431;52.458;9.998;2022-08-21T03:19:05;12.10;99.90
16635;DHT22;8431;52.458;9.998;2022-08-21T03:21:31;12.10;99.90
16635;DHT22;8431;52.458;9.998;2022-08-21T03:24:04;12.00;99.90
16635;DHT22;8431;52.458;9.998;2022-08-21T03:26:32;12.00;99.90
16635;DHT22;8431;52.458;9.998;2022-08-21T03:28:59;12.00;99.90
16635;DHT22;8431;52.458;9.998;2022-08-21T03:31:27;12.00;99.90
16635;DHT22;8431;52.458;9.998;2022-08-21T03:33:56;12.00;99.90
16635;DHT22;8431;52.458;9.998;2022-08-21T03:36:23;11.90;99.90
16635;DHT22;8431;52.458;9.998;2022-08-21T03:38:50;11.90;99.90
16635;DHT22;8431;52.458;9.998;2022-08-21T03:41:19;11.90;99.90
16635;DHT22;8431;52.458;9.998;2022-08-21T03:43:46;11.90;99.90
16635;DHT22;8431;52.458;9.998;2022-08-21T03:46:13;12.00;99.90
16635;DHT22;8431;52.458;9.998;2022-08-21T03:48:40;12.00;99.90
16635;DHT22;8431;52.458;9.998;2022-08-21T03:51:07;11.90;99.90
16635;DHT22;8431;52.458;9.998;2022-08-21T03:53:34;11.90;99.90
16635;DHT22;8431;52.458;9.998;2022-08-21T03:56:02;11.90;99.90
16635;DHT22;8431;52.458;9.998;2022-08-21T03:58:30;12.10;99.90
16635;DHT22;8431;52.458;9.998;2022-08-21T04:00:59;12.10;99.90
16635;DHT22;8431;52.458;9.998;2022-08-21T04:03:28;12.20;99.90
16635;DHT22;8431;52.458;9.998;2022-08-21T04:05:55;12.20;99.90
16635;DHT22;8431;52.458;9.998;2022-08-21T04:08:22;12.20;99.90
16635;DHT22;8431;52.458;9.998;2022-08-21T04:10:52;12.20;99.90
16635;DHT22;8431;52.458;9.998;2022-08-21T04:13:24;12.20;99.90
16635;DHT22;8431;52.458;9.998;2022-08-21T04:15:56;12.30;99.90
16635;DHT22;8431;52.458;9.998;2022-08-21T04:18:23;12.30;99.90
16635;DHT22;8431;52.458;9.998;2022-08-21T04:20:54;12.40;99.90
16635;DHT22;8431;52.458;9.998;2022-08-21T04:23:26;12.50;99.90
16635;DHT22;8431;52.458;9.998;2022-08-21T04:25:54;12.50;99.90
16635;DHT22;8431;52.458;9.998;2022-08-21T04:28:22;12.60;99.90
16635;DHT22;8431;52.458;9.998;2022-08-21T04:30:49;12.60;99.90
16635;DHT22;8431;52.458;9.998;2022-08-21T04:33:19;12.70;99.90
16635;DHT22;8431;52.458;9.998;2022-08-21T04:35:46;12.80;99.90
16635;DHT22;8431;52.458;9.998;2022-08-21T04:38:14;12.90;99.90
16635;DHT22;8431;52.458;9.998;2022-08-21T04:40:41;12.90;99.90
16635;DHT22;8431;52.458;9.998;2022-08-21T04:43:09;13.00;99.90
16635;DHT22;8431;52.458;9.998;2022-08-21T04:45:38;13.10;99.90
16635;DHT22;8431;52.458;9.998;2022-08-21T04:48:08;13.10;99.90
16635;DHT22;8431;52.458;9.998;2022-08-21T04:50:41;13.30;99.90
16635;DHT22;8431;52.458;9.998;2022-08-21T04:53:14;13.40;99.90
16635;DHT22;8431;52.458;9.998;2022-08-21T04:55:43;13.50;99.90
16635;DHT22;8431;52.458;9.998;2022-08-21T04:58:13;13.60;99.90
16635;DHT22;8431;52.458;9.998;2022-08-21T05:00:41;13.70;99.90
16635;DHT22;8431;52.458;9.998;2022-08-21T05:03:09;13.80;99.90
16635;DHT22;8431;52.458;9.998;2022-08-21T05:05:39;13.90;99.90
16635;DHT22;8431;52.458;9.998;2022-08-21T05:08:08;14.00;99.90
16635;DHT22;8431;52.458;9.998;2022-08-21T05:10:38;14.10;99.90
16635;DHT22;8431;52.458;9.998;2022-08-21T05:13:06;14.20;99.90
16635;DHT22;8431;52.458;9.998;2022-08-21T05:15:33;14.30;99.90
16635;DHT22;8431;52.458;9.998;2022-08-21T05:18:00;14.40;99.90
16635;DHT22;8431;52.458;9.998;2022-08-21T05:20:27;14.50;99.90
16635;DHT22;8431;52.458;9.998;2022-08-21T05:22:56;14.60;99.90
16635;DHT22;8431;52.458;9.998;2022-08-21T05:25:23;14.70;99.90
16635;DHT22;8431;52.458;9.998;2022-08-21T05:27:50;14.80;99.90
16635;DHT22;8431;52.458;9.998;2022-08-21T05:30:19;14.90;99.90
16635;DHT22;8431;52.458;9.998;2022-08-21T05:32:47;14.90;99.90
16635;DHT22;8431;52.458;9.998;2022-08-21T05:35:14;15.00;99.90
16635;DHT22;8431;52.458;9.998;2022-08-21T05:37:41;15.10;99.90
16635;DHT22;8431;52.458;9.998;2022-08-21T05:40:10;15.20;99.90
16635;DHT22;8431;52.458;9.998;2022-08-21T05:42:37;15.30;99.90
16635;DHT22;8431;52.458;9.998;2022-08-21T05:45:05;15.40;99.90
16635;DHT22;8431;52.458;9.998;2022-08-21T05:47:32;15.60;99.90
16635;DHT22;8431;52.458;9.998;2022-08-21T05:49:59;15.70;99.90
16635;DHT22;8431;52.458;9.998;2022-08-21T05:52:26;15.90;99.90
16635;DHT22;8431;52.458;9.998;2022-08-21T05:54:53;16.10;99.90
16635;DHT22;8431;52.458;9.998;2022-08-21T05:57:22;16.20;99.90
16635;DHT22;8431;52.458;9.998;2022-08-21T05:59:51;16.30;99.90
16635;DHT22;8431;52.458;9.998;2022-08-21T06:02:18;16.40;99.90
16635;DHT22;8431;52.458;9.998;2022-08-21T06:04:46;16.60;99.90
16635;DHT22;8431;52.458;9.998;2022-08-21T06:07:13;16.70;99.90
16635;DHT22;8431;52.458;9.998;2022-08-21T06:09:40;16.90;99.90
16635;DHT22;8431;52.458;9.998;2022-08-21T06:12:09;16.90;99.90
16635;DHT22;8431;52.458;9.998;2022-08-21T06:14:40;17.00;99.90
16635;DHT22;8431;52.458;9.998;2022-08-21T06:17:09;17.00;99.90
16635;DHT22;8431;52.458;9.998;2022-08-21T06:19:36;17.10;99.90
16635;DHT22;8431;52.458;9.998;2022-08-21T06:22:04;17.10;99.90
16635;DHT22;8431;52.458;9.998;2022-08-21T06:24:31;17.10;99.90
16635;DHT22;8431;52.458;9.998;2022-08-21T06:27:03;17.10;99.90
16635;DHT22;8431;52.458;9.998;2022-08-21T06:29:30;17.10;99.90
16635;DHT22;8431;52.458;9.998;2022-08-21T06:32:01;17.20;99.90
16635;DHT22;8431;52.458;9.998;2022-08-21T06:34:32;17.40;99.90
16635;DHT22;8431;52.458;9.998;2022-08-21T06:37:09;17.60;99.90
16635;DHT22;8431;52.458;9.998;2022-08-21T06:39:40;17.60;99.90
16635;DHT22;8431;52.458;9.998;2022-08-21T06:42:13;17.60;99.90
16635;DHT22;8431;52.458;9.998;2022-08-21T06:44:40;17.80;99.90
16635;DHT22;8431;52.458;9.998;2022-08-21T06:47:13;17.90;99.90
16635;DHT22;8431;52.458;9.998;2022-08-21T06:49:53;17.90;99.90
16635;DHT22;8431;52.458;9.998;2022-08-21T06:52:38;17.90;99.90
16635;DHT22;8431;52.458;9.998;2022-08-21T06:55:12;18.00;99.90
16635;DHT22;8431;52.458;9.998;2022-08-21T06:57:48;18.00;99.90
16635;DHT22;8431;52.458;9.998;2022-08-21T07:00:21;18.00;99.90
16635;DHT22;8431;52.458;9.998;2022-08-21T07:03:00;18.00;99.90
16635;DHT22;8431;52.458;9.998;2022-08-21T07:05:32;18.10;99.90
16635;DHT22;8431;52.458;9.998;2022-08-21T07:08:15;18.30;99.90
16635;DHT22;8431;52.458;9.998;2022-08-21T07:10:43;18.50;99.90
16635;DHT22;8431;52.458;9.998;2022-08-21T07:13:10;18.60;99.90
16635;DHT22;8431;52.458;9.998;2022-08-21T07:15:37;18.70;99.90
16635;DHT22;8431;52.458;9.998;2022-08-21T07:18:06;18.50;99.90
16635;DHT22;8431;52.458;9.998;2022-08-21T07:20:33;18.40;99.90
16635;DHT22;8431;52.458;9.998;2022-08-21T07:23:03;18.40;99.90
16635;DHT22;8431;52.458;9.998;2022-08-21T07:25:31;18.30;99.90
16635;DHT22;8431;52.458;9.998;2022-08-21T07:27:59;18.40;99.90
16635;DHT22;8431;52.458;9.998;2022-08-21T07:30:31;18.60;99.90
16635;DHT22;8431;52.458;9.998;2022-08-21T07:32:59;18.60;99.90
16635;DHT22;8431;52.458;9.998;2022-08-21T07:35:28;18.70;99.90
16635;DHT22;8431;52.458;9.998;2022-08-21T07:37:57;18.60;99.90
16635;DHT22;8431;52.458;9.998;2022-08-21T07:40:25;18.70;99.90
16635;DHT22;8431;52.458;9.998;2022-08-21T07:42:53;18.70;99.90
16635;DHT22;8431;52.458;9.998;2022-08-21T07:45:21;18.60;99.90
16635;DHT22;8431;52.458;9.998;2022-08-21T07:47:52;18.60;99.90
16635;DHT22;8431;52.458;9.998;2022-08-21T07:50:35;18.60;99.90
16635;DHT22;8431;52.458;9.998;2022-08-21T07:53:15;18.80;99.90
16635;DHT22;8431;52.458;9.998;2022-08-21T07:55:50;18.90;99.90
16635;DHT22;8431;52.458;9.998;2022-08-21T07:58:23;18.90;99.90
16635;DHT22;8431;52.458;9.998;2022-08-21T08:00:56;19.00;99.90
16635;DHT22;8431;52.458;9.998;2022-08-21T08:03:34;19.00;99.90
16635;DHT22;8431;52.458;9.998;2022-08-21T08:06:10;19.00;99.90
16635;DHT22;8431;52.458;9.998;2022-08-21T08:08:41;19.00;99.90
16635;DHT22;8431;52.458;9.998;2022-08-21T08:11:15;19.20;99.90
16635;DHT22;8431;52.458;9.998;2022-08-21T08:13:49;19.30;99.90
16635;DHT22;8431;52.458;9.998;2022-08-21T08:16:20;19.40;99.90
16635;DHT22;8431;52.458;9.998;2022-08-21T08:18:50;19.50;99.90
16635;DHT22;8431;52.458;9.998;2022-08-21T08:21:21;19.70;99.90
16635;DHT22;8431;52.458;9.998;2022-08-21T08:23:49;19.70;99.90
16635;DHT22;8431;52.458;9.998;2022-08-21T08:26:16;19.80;99.90
16635;DHT22;8431;52.458;9.998;2022-08-21T08:44:57;20.60;99.90
16635;DHT22;8431;52.458;9.998;2022-08-21T08:47:24;20.70;99.90
16635;DHT22;8431;52.458;9.998;2022-08-21T08:50:07;20.80;99.90
16635;DHT22;8431;52.458;9.998;2022-08-21T08:52:46;21.00;99.90
16635;DHT22;8431;52.458;9.998;2022-08-21T08:55:17;21.10;99.90
16635;DHT22;8431;52.458;9.998;2022-08-21T08:57:47;21.20;99.90
16635;DHT22;8431;52.458;9.998;2022-08-21T09:00:19;21.30;99.90
16635;DHT22;8431;52.458;9.998;2022-08-21T09:02:47;21.20;99.90
16635;DHT22;8431;52.458;9.998;2022-08-21T09:05:22;21.30;99.90
16635;DHT22;8431;52.458;9.998;2022-08-21T09:08:14;21.20;99.90
16635;DHT22;8431;52.458;9.998;2022-08-21T09:10:51;21.30;99.90
16635;DHT22;8431;52.458;9.998;2022-08-21T09:13:29;21.50;99.90
16635;DHT22;8431;52.458;9.998;2022-08-21T09:16:05;21.50;99.90
16635;DHT22;8431;52.458;9.998;2022-08-21T09:18:42;21.50;99.90
16635;DHT22;8431;52.458;9.998;2022-08-21T09:21:20;21.60;99.90
16635;DHT22;8431;52.458;9.998;2022-08-21T09:23:54;21.80;99.90
16635;DHT22;8431;52.458;9.998;2022-08-21T09:26:45;21.80;99.90
16635;DHT22;8431;52.458;9.998;2022-08-21T09:29:18;21.80;99.90
16635;DHT22;8431;52.458;9.998;2022-08-21T09:31:50;21.90;99.90
16635;DHT22;8431;52.458;9.998;2022-08-21T09:34:26;21.90;99.90
16635;DHT22;8431;52.458;9.998;2022-08-21T09:36:53;22.10;99.90
16635;DHT22;8431;52.458;9.998;2022-08-21T09:39:26;22.20;99.90
16635;DHT22;8431;52.458;9.998;2022-08-21T09:41:58;22.20;99.90
16635;DHT22;8431;52.458;9.998;2022-08-21T09:44:27;22.20;99.90
16635;DHT22;8431;52.458;9.998;2022-08-21T09:46:59;22.20;99.90
16635;DHT22;8431;52.458;9.998;2022-08-21T09:49:38;22.40;99.90
16635;DHT22;8431;52.458;9.998;2022-08-21T09:52:15;22.30;99.90
16635;DHT22;8431;52.458;9.998;2022-08-21T09:54:50;22.30;99.90
16635;DHT22;8431;52.458;9.998;2022-08-21T09:57:23;22.30;99.90
16635;DHT22;8431;52.458;9.998;2022-08-21T10:00:10;22.40;99.90
16635;DHT22;8431;52.458;9.998;2022-08-21T10:02:43;22.50;99.90
16635;DHT22;8431;52.458;9.998;2022-08-21T10:05:17;22.60;99.90
16635;DHT22;8431;52.458;9.998;2022-08-21T10:08:03;22.70;99.90
16635;DHT22;8431;52.458;9.998;2022-08-21T10:10:36;22.80;99.90
16635;DHT22;8431;52.458;9.998;2022-08-21T10:13:12;22.80;99.90
16635;DHT22;8431;52.458;9.998;2022-08-21T10:15:47;22.90;99.90
16635;DHT22;8431;52.458;9.998;2022-08-21T10:18:24;22.80;99.90
16635;DHT22;8431;52.458;9.998;2022-08-21T10:21:00;22.80;99.90
16635;DHT22;8431;52.458;9.998;2022-08-21T10:23:40;23.10;99.90
16635;DHT22;8431;52.458;9.998;2022-08-21T10:26:20;23.10;99.90
16635;DHT22;8431;52.458;9.998;2022-08-21T10:28:57;23.40;99.90
16635;DHT22;8431;52.458;9.998;2022-08-21T10:31:32;23.70;99.90
16635;DHT22;8431;52.458;9.998;2022-08-21T10:34:18;24.10;99.90
16635;DHT22;8431;52.458;9.998;2022-08-21T10:37:31;24.10;99.90
16635;DHT22;8431;52.458;9.998;2022-08-21T10:40:12;24.10;99.90
16635;DHT22;8431;52.458;9.998;2022-08-21T15:01:36;25.70;99.90
16635;DHT22;8431;52.458;9.998;2022-08-21T15:04:03;25.80;99.90
16635;DHT22;8431;52.458;9.998;2022-08-21T15:06:30;25.80;99.90
16635;DHT22;8431;52.458;9.998;2022-08-21T15:08:57;26.00;99.90
16635;DHT22;8431;52.458;9.998;2022-08-21T15:11:25;26.00;99.90
16635;DHT22;8431;52.458;9.998;2022-08-21T15:14:08;26.10;99.90
16635;DHT22;8431;52.458;9.998;2022-08-21T15:16:38;26.00;99.60
16635;DHT22;8431;52.458;9.998;2022-08-21T15:19:05;25.80;99.90
16635;DHT22;8431;52.458;9.998;2022-08-21T15:21:32;25.90;99.90
16635;DHT22;8431;52.458;9.998;2022-08-21T15:23:59;25.90;99.80
16635;DHT22;8431;52.458;9.998;2022-08-21T15:26:26;25.90;99.90
16635;DHT22;8431;52.458;9.998;2022-08-21T15:28:55;25.70;99.90
16635;DHT22;8431;52.458;9.998;2022-08-21T15:31:22;25.60;99.90
16635;DHT22;8431;52.458;9.998;2022-08-21T15:33:51;25.70;99.90
16635;DHT22;8431;52.458;9.998;2022-08-21T15:36:18;26.00;99.90
16635;DHT22;8431;52.458;9.998;2022-08-21T15:38:45;26.20;99.80
16635;DHT22;8431;52.458;9.998;2022-08-21T15:41:13;26.20;99.00
16635;DHT22;8431;52.458;9.998;2022-08-21T15:43:42;25.90;99.70
16635;DHT22;8431;52.458;9.998;2022-08-21T15:46:13;25.70;99.90
16635;DHT22;8431;52.458;9.998;2022-08-21T15:48:41;25.80;99.50
16635;DHT22;8431;52.458;9.998;2022-08-21T15:51:10;25.90;99.90
16635;DHT22;8431;52.458;9.998;2022-08-21T15:53:38;26.00;99.50
16635;DHT22;8431;52.458;9.998;2022-08-21T15:56:06;25.80;99.50
16635;DHT22;8431;52.458;9.998;2022-08-21T16:01:27;25.80;99.90
16635;DHT22;8431;52.458;9.998;2022-08-21T16:03:55;25.80;99.10
16635;DHT22;8431;52.458;9.998;2022-08-21T16:06:24;25.70;99.50
16635;DHT22;8431;52.458;9.998;2022-08-21T16:08:51;25.60;99.30
16635;DHT22;8431;52.458;9.998;2022-08-21T16:11:18;25.50;99.90
16635;DHT22;8431;52.458;9.998;2022-08-21T16:13:46;25.60;99.90
16635;DHT22;8431;52.458;9.998;2022-08-21T16:16:18;25.70;99.80
16635;DHT22;8431;52.458;9.998;2022-08-21T16:18:46;25.70;99.80
16635;DHT22;8431;52.458;9.998;2022-08-21T16:21:13;25.70;99.30
16635;DHT22;8431;52.458;9.998;2022-08-21T16:23:42;25.60;98.80
16635;DHT22;8431;52.458;9.998;2022-08-21T16:26:11;25.60;98.90
16635;DHT22;8431;52.458;9.998;2022-08-21T16:28:41;25.90;99.40
16635;DHT22;8431;52.458;9.998;2022-08-21T16:31:08;26.60;98.40
16635;DHT22;8431;52.458;9.998;2022-08-21T16:33:39;27.80;96.90
16635;DHT22;8431;52.458;9.998;2022-08-21T16:36:07;28.80;96.30
16635;DHT22;8431;52.458;9.998;2022-08-21T16:38:35;28.90;95.70
16635;DHT22;8431;52.458;9.998;2022-08-21T16:41:08;29.40;94.70
16635;DHT22;8431;52.458;9.998;2022-08-21T16:43:38;29.50;94.70
16635;DHT22;8431;52.458;9.998;2022-08-21T16:46:07;29.40;93.50
16635;DHT22;8431;52.458;9.998;2022-08-21T16:48:37;29.50;93.60
16635;DHT22;8431;52.458;9.998;2022-08-21T16:51:04;29.30;93.20
16635;DHT22;8431;52.458;9.998;2022-08-21T16:53:32;29.20;93.30
16635;DHT22;8431;52.458;9.998;2022-08-21T16:55:59;28.80;93.70
16635;DHT22;8431;52.458;9.998;2022-08-21T16:58:30;28.20;93.90
16635;DHT22;8431;52.458;9.998;2022-08-21T17:00:58;27.80;94.60
16635;DHT22;8431;52.458;9.998;2022-08-21T17:03:30;27.20;95.00
16635;DHT22;8431;52.458;9.998;2022-08-21T17:05:58;26.50;95.80
16635;DHT22;8431;52.458;9.998;2022-08-21T17:08:26;26.20;95.80
16635;DHT22;8431;52.458;9.998;2022-08-21T17:10:53;25.90;96.60
16635;DHT22;8431;52.458;9.998;2022-08-21T17:13:21;25.50;96.70
16635;DHT22;8431;52.458;9.998;2022-08-21T17:15:50;25.40;96.60
16635;DHT22;8431;52.458;9.998;2022-08-21T17:18:19;25.20;97.50
16635;DHT22;8431;52.458;9.998;2022-08-21T17:20:47;25.20;98.30
16635;DHT22;8431;52.458;9.998;2022-08-21T17:23:15;25.20;98.10
16635;DHT22;8431;52.458;9.998;2022-08-21T17:25:45;25.10;97.60
16635;DHT22;8431;52.458;9.998;2022-08-21T17:28:15;24.90;98.70
16635;DHT22;8431;52.458;9.998;2022-08-21T17:30:43;24.60;98.70
16635;DHT22;8431;52.458;9.998;2022-08-21T17:33:13;24.20;99.30
16635;DHT22;8431;52.458;9.998;2022-08-21T17:35:40;23.90;99.90
16635;DHT22;8431;52.458;9.998;2022-08-21T17:38:07;23.80;99.90
16635;DHT22;8431;52.458;9.998;2022-08-21T17:40:35;23.90;99.90
16635;DHT22;8431;52.458;9.998;2022-08-21T17:43:03;23.80;99.90
16635;DHT22;8431;52.458;9.998;2022-08-21T17:45:32;23.60;99.90
16635;DHT22;8431;52.458;9.998;2022-08-21T17:47:59;23.30;99.90
16635;DHT22;8431;52.458;9.998;2022-08-21T17:50:28;23.00;99.90
16635;DHT22;8431;52.458;9.998;2022-08-21T17:52:55;22.80;99.90
16635;DHT22;8431;52.458;9.998;2022-08-21T17:55:22;22.70;99.90
16635;DHT22;8431;52.458;9.998;2022-08-21T17:57:50;22.50;99.90
16635;DHT22;8431;52.458;9.998;2022-08-21T18:00:20;22.40;99.90
16635;DHT22;8431;52.458;9.998;2022-08-21T18:02:56;22.30;99.90
16635;DHT22;8431;52.458;9.998;2022-08-21T18:05:24;22.10;99.90
16635;DHT22;8431;52.458;9.998;2022-08-21T18:07:53;22.00;99.90
16635;DHT22;8431;52.458;9.998;2022-08-21T18:10:20;21.80;99.90
16635;DHT22;8431;52.458;9.998;2022-08-21T18:12:47;21.70;99.90
16635;DHT22;8431;52.458;9.998;2022-08-21T18:15:16;21.70;99.90
16635;DHT22;8431;52.458;9.998;2022-08-21T18:17:46;21.60;99.90
16635;DHT22;8431;52.458;9.998;2022-08-21T18:20:15;21.30;99.90
16635;DHT22;8431;52.458;9.998;2022-08-21T18:22:43;21.00;99.90
16635;DHT22;8431;52.458;9.998;2022-08-21T18:25:12;20.90;99.90
16635;DHT22;8431;52.458;9.998;2022-08-21T18:27:40;20.50;99.90
16635;DHT22;8431;52.458;9.998;2022-08-21T18:30:11;20.30;99.90
16635;DHT22;8431;52.458;9.998;2022-08-21T18:32:41;20.10;99.90
16635;DHT22;8431;52.458;9.998;2022-08-21T18:35:09;20.00;99.90
16635;DHT22;8431;52.458;9.998;2022-08-21T18:37:37;19.80;99.90
16635;DHT22;8431;52.458;9.998;2022-08-21T18:40:06;19.50;99.90
16635;DHT22;8431;52.458;9.998;2022-08-21T18:42:38;19.40;99.90
16635;DHT22;8431;52.458;9.998;2022-08-21T18:45:09;19.30;99.90
16635;DHT22;8431;52.458;9.998;2022-08-21T18:47:40;19.10;99.90
16635;DHT22;8431;52.458;9.998;2022-08-21T18:50:09;19.00;99.90
16635;DHT22;8431;52.458;9.998;2022-08-21T18:52:37;18.90;99.90
16635;DHT22;8431;52.458;9.998;2022-08-21T18:55:05;18.80;99.90
16635;DHT22;8431;52.458;9.998;2022-08-21T18:57:37;18.70;99.90
16635;DHT22;8431;52.458;9.998;2022-08-21T19:00:07;18.60;99.90
16635;DHT22;8431;52.458;9.998;2022-08-21T19:02:36;18.50;99.90
16635;DHT22;8431;52.458;9.998;2022-08-21T19:05:04;18.50;99.90
16635;DHT22;8431;52.458;9.998;2022-08-21T19:07:31;18.30;99.90
16635;DHT22;8431;52.458;9.998;2022-08-21T19:09:58;18.20;99.90
16635;DHT22;8431;52.458;9.998;2022-08-21T19:12:26;18.10;99.90
16635;DHT22;8431;52.458;9.998;2022-08-21T19:14:58;18.00;99.90
16635;DHT22;8431;52.458;9.998;2022-08-21T19:17:26;17.90;99.90
16635;DHT22;8431;52.458;9.998;2022-08-21T19:20:03;17.90;99.90
16635;DHT22;8431;52.458;9.998;2022-08-21T19:22:31;17.80;99.90
16635;DHT22;8431;52.458;9.998;2022-08-21T19:24:58;17.70;99.90
16635;DHT22;8431;52.458;9.998;2022-08-21T19:27:26;17.60;99.90
16635;DHT22;8431;52.458;9.998;2022-08-21T19:29:53;17.60;99.90
16635;DHT22;8431;52.458;9.998;2022-08-21T19:32:21;17.50;99.90
16635;DHT22;8431;52.458;9.998;2022-08-21T19:34:48;17.50;99.90
16635;DHT22;8431;52.458;9.998;2022-08-21T19:37:16;17.40;99.90
16635;DHT22;8431;52.458;9.998;2022-08-21T19:39:45;17.30;99.90
16635;DHT22;8431;52.458;9.998;2022-08-21T19:42:13;17.20;99.90
16635;DHT22;8431;52.458;9.998;2022-08-21T19:44:42;17.10;99.90
16635;DHT22;8431;52.458;9.998;2022-08-21T19:47:14;17.10;99.90
16635;DHT22;8431;52.458;9.998;2022-08-21T19:49:47;17.00;99.90
16635;DHT22;8431;52.458;9.998;2022-08-21T19:52:17;17.00;99.90
16635;DHT22;8431;52.458;9.998;2022-08-21T19:54:44;17.00;99.90
16635;DHT22;8431;52.458;9.998;2022-08-21T19:57:12;16.90;99.90
16635;DHT22;8431;52.458;9.998;2022-08-21T19:59:40;16.90;99.90
16635;DHT22;8431;52.458;9.998;2022-08-21T20:02:08;16.80;99.90
16635;DHT22;8431;52.458;9.998;2022-08-21T20:04:36;16.80;99.90
16635;DHT22;8431;52.458;9.998;2022-08-21T20:07:05;16.70;99.90
16635;DHT22;8431;52.458;9.998;2022-08-21T20:09:32;16.70;99.90
16635;DHT22;8431;52.458;9.998;2022-08-21T20:12:03;16.70;99.90
16635;DHT22;8431;52.458;9.998;2022-08-21T20:14:31;16.60;99.90
16635;DHT22;8431;52.458;9.998;2022-08-21T20:17:00;16.50;99.90
16635;DHT22;8431;52.458;9.998;2022-08-21T20:19:31;16.50;99.90
16635;DHT22;8431;52.458;9.998;2022-08-21T20:22:00;16.40;99.90
16635;DHT22;8431;52.458;9.998;2022-08-21T20:24:28;16.40;99.90
16635;DHT22;8431;52.458;9.998;2022-08-21T20:26:56;16.40;99.90
16635;DHT22;8431;52.458;9.998;2022-08-21T20:29:24;16.30;99.90
16635;DHT22;8431;52.458;9.998;2022-08-21T20:31:52;16.30;99.90
16635;DHT22;8431;52.458;9.998;2022-08-21T20:34:20;16.40;99.90
16635;DHT22;8431;52.458;9.998;2022-08-21T20:36:54;16.30;99.90
16635;DHT22;8431;52.458;9.998;2022-08-21T20:39:22;16.30;99.90